sensor_id;sensor_type;location;lat;lon;timestamp;pressure;altitude;pressure_sealevel;temperature;humidity
33151;BME280;19508;42.578;23.416;2023-07-22T00:01:10;93627.78;;;25.65;51.98
33151;BME280;19508;42.578;23.416;2023-07-22T00:03:36;93625.53;;;25.70;52.22
33151;BME280;19508;42.578;23.416;2023-07-22T00:06:08;93636.47;;;25.67;52.35
33151;BME280;19508;42.578;23.416;2023-07-22T00:08:35;93634.09;;;25.65;52.23
33151;BME280;19508;42.578;23.416;2023-07-22T00:11:01;93642.91;;;25.71;52.26
33151;BME280;19508;42.578;23.416;2023-07-22T00:13:26;93641.06;;;25.63;52.59
33151;BME280;19508;42.578;23.416;2023-07-22T00:15:56;93653.47;;;25.69;52.58
33151;BME280;19508;42.578;23.416;2023-07-22T00:18:22;93650.78;;;25.56;52.93
33151;BME280;19508;42.578;23.416;2023-07-22T00:20:49;93639.91;;;25.48;53.44
33151;BME280;19508;42.578;23.416;2023-07-22T00:23:15;93636.00;;;25.49;53.41
33151;BME280;19508;42.578;23.416;2023-07-22T00:25:41;93639.25;;;25.39;54.29
33151;BME280;19508;42.578;23.416;2023-07-22T00:28:07;93640.66;;;25.33;54.32
33151;BME280;19508;42.578;23.416;2023-07-22T00:30:33;93641.22;;;25.38;54.27
33151;BME280;19508;42.578;23.416;2023-07-22T00:33:00;93647.19;;;25.28;54.58
33151;BME280;19508;42.578;23.416;2023-07-22T00:35:25;93637.34;;;25.27;54.65
33151;BME280;19508;42.578;23.416;2023-07-22T00:37:51;93650.22;;;25.23;54.65
33151;BME280;19508;42.578;23.416;2023-07-22T00:40:16;93658.13;;;25.24;54.70
33151;BME280;19508;42.578;23.416;2023-07-22T00:42:43;93664.34;;;25.21;54.76
33151;BME280;19508;42.578;23.416;2023-07-22T00:45:08;93658.28;;;25.03;55.75
33151;BME280;19508;42.578;23.416;2023-07-22T00:47:34;93662.41;;;25.10;55.59
33151;BME280;19508;42.578;23.416;2023-07-22T00:50:02;93670.22;;;25.08;55.54
33151;BME280;19508;42.578;23.416;2023-07-22T00:52:28;93669.31;;;25.03;55.66
33151;BME280;19508;42.578;23.416;2023-07-22T00:54:55;93671.25;;;25.03;55.81
33151;BME280;19508;42.578;23.416;2023-07-22T00:57:21;93674.81;;;25.03;55.85
33151;BME280;19508;42.578;23.416;2023-07-22T00:59:48;93672.28;;;24.98;56.08
33151;BME280;19508;42.578;23.416;2023-07-22T01:02:14;93669.97;;;25.00;55.98
33151;BME280;19508;42.578;23.416;2023-07-22T01:04:40;93677.66;;;24.95;56.58
33151;BME280;19508;42.578;23.416;2023-07-22T01:07:06;93669.88;;;24.85;56.66
33151;BME280;19508;42.578;23.416;2023-07-22T01:09:36;93681.25;;;24.95;56.62
33151;BME280;19508;42.578;23.416;2023-07-22T01:12:02;93670.94;;;24.80;56.90
33151;BME280;19508;42.578;23.416;2023-07-22T01:14:28;93675.06;;;24.74;57.42
33151;BME280;19508;42.578;23.416;2023-07-22T01:16:53;93672.88;;;24.80;57.57
33151;BME280;19508;42.578;23.416;2023-07-22T01:19:19;93673.69;;;24.68;57.72
33151;BME280;19508;42.578;23.416;2023-07-22T01:21:45;93664.28;;;24.69;57.76
33151;BME280;19508;42.578;23.416;2023-07-22T01:24:12;93661.31;;;24.62;58.09
33151;BME280;19508;42.578;23.416;2023-07-22T01:26:38;93660.66;;;24.53;58.56
33151;BME280;19508;42.578;23.416;2023-07-22T01:29:04;93659.16;;;24.55;58.85
33151;BME280;19508;42.578;23.416;2023-07-22T01:31:31;93657.66;;;24.58;58.62
33151;BME280;19508;42.578;23.416;2023-07-22T01:33:56;93661.53;;;24.57;58.72
33151;BME280;19508;42.578;23.416;2023-07-22T01:36:23;93662.69;;;24.43;59.51
33151;BME280;19508;42.578;23.416;2023-07-22T01:38:49;93654.78;;;24.42;59.55
33151;BME280;19508;42.578;23.416;2023-07-22T01:41:14;93657.41;;;24.51;59.39
33151;BME280;19508;42.578;23.416;2023-07-22T01:43:40;93661.53;;;24.57;59.10
33151;BME280;19508;42.578;23.416;2023-07-22T01:46:05;93660.16;;;24.51;59.34
33151;BME280;19508;42.578;23.416;2023-07-22T01:48:30;93650.31;;;24.50;59.34
33151;BME280;19508;42.578;23.416;2023-07-22T01:50:56;93642.16;;;24.41;59.86
33151;BME280;19508;42.578;23.416;2023-07-22T01:53:21;93652.47;;;24.44;59.89
33151;BME280;19508;42.578;23.416;2023-07-22T01:55:46;93641.00;;;24.30;59.90
33151;BME280;19508;42.578;23.416;2023-07-22T01:58:12;93642.06;;;24.37;59.80
33151;BME280;19508;42.578;23.416;2023-07-22T02:00:37;93640.47;;;24.36;60.12
33151;BME280;19508;42.578;23.416;2023-07-22T02:03:03;93639.16;;;24.22;60.34
33151;BME280;19508;42.578;23.416;2023-07-22T02:05:29;93640.19;;;24.17;60.69
33151;BME280;19508;42.578;23.416;2023-07-22T02:07:55;93641.22;;;24.12;60.99
33151;BME280;19508;42.578;23.416;2023-07-22T02:10:21;93647.38;;;24.09;61.09
33151;BME280;19508;42.578;23.416;2023-07-22T02:12:46;93647.84;;;23.99;61.58
33151;BME280;19508;42.578;23.416;2023-07-22T02:15:12;93634.69;;;24.05;61.49
33151;BME280;19508;42.578;23.416;2023-07-22T02:17:37;93640.38;;;24.00;61.76
33151;BME280;19508;42.578;23.416;2023-07-22T02:20:03;93632.94;;;23.88;62.34
33151;BME280;19508;42.578;23.416;2023-07-22T02:22:29;93635.94;;;23.95;62.27
33151;BME280;19508;42.578;23.416;2023-07-22T02:24:55;93647.72;;;23.96;62.31
33151;BME280;19508;42.578;23.416;2023-07-22T02:27:20;93640.84;;;23.89;62.40
33151;BME280;19508;42.578;23.416;2023-07-22T02:29:46;93644.72;;;23.76;63.03
33151;BME280;19508;42.578;23.416;2023-07-22T02:32:13;93636.94;;;23.78;62.94
33151;BME280;19508;42.578;23.416;2023-07-22T02:34:39;93640.47;;;23.79;62.96
33151;BME280;19508;42.578;23.416;2023-07-22T02:37:04;93646.75;;;23.67;63.39
33151;BME280;19508;42.578;23.416;2023-07-22T02:39:30;93652.97;;;23.76;63.35
33151;BME280;19508;42.578;23.416;2023-07-22T02:41:55;93654.06;;;23.63;63.92
33151;BME280;19508;42.578;23.416;2023-07-22T02:44:20;93649.16;;;23.69;63.64
33151;BME280;19508;42.578;23.416;2023-07-22T02:46:46;93645.94;;;23.67;63.55
33151;BME280;19508;42.578;23.416;2023-07-22T02:49:11;93645.03;;;23.62;63.62
33151;BME280;19508;42.578;23.416;2023-07-22T02:51:36;93644.72;;;23.55;64.22
33151;BME280;19508;42.578;23.416;2023-07-22T02:54:02;93644.13;;;23.50;64.64
33151;BME280;19508;42.578;23.416;2023-07-22T02:56:29;93648.25;;;23.44;65.20
33151;BME280;19508;42.578;23.416;2023-07-22T02:58:54;93651.00;;;23.44;65.39
33151;BME280;19508;42.578;23.416;2023-07-22T03:01:19;93647.31;;;23.40;65.33
33151;BME280;19508;42.578;23.416;2023-07-22T03:03:45;93644.38;;;23.45;65.38
33151;BME280;19508;42.578;23.416;2023-07-22T03:06:10;93637.00;;;23.36;65.94
33151;BME280;19508;42.578;23.416;2023-07-22T03:08:36;93640.63;;;23.28;65.92
33151;BME280;19508;42.578;23.416;2023-07-22T03:11:01;93644.53;;;23.27;66.39
33151;BME280;19508;42.578;23.416;2023-07-22T03:13:27;93654.03;;;23.30;66.47
33151;BME280;19508;42.578;23.416;2023-07-22T03:15:56;93658.03;;;23.32;66.20
33151;BME280;19508;42.578;23.416;2023-07-22T03:18:22;93637.53;;;23.30;66.53
33151;BME280;19508;42.578;23.416;2023-07-22T03:20:47;93651.75;;;23.32;66.74
33151;BME280;19508;42.578;23.416;2023-07-22T03:23:13;93643.31;;;23.37;66.52
33151;BME280;19508;42.578;23.416;2023-07-22T03:25:38;93654.28;;;23.37;66.42
33151;BME280;19508;42.578;23.416;2023-07-22T03:28:05;93649.41;;;23.43;65.86
33151;BME280;19508;42.578;23.416;2023-07-22T03:30:31;93651.19;;;23.39;66.33
33151;BME280;19508;42.578;23.416;2023-07-22T03:32:56;93653.75;;;23.44;66.65
33151;BME280;19508;42.578;23.416;2023-07-22T03:35:22;93652.38;;;23.50;65.85
33151;BME280;19508;42.578;23.416;2023-07-22T03:37:47;93654.00;;;23.51;65.98
33151;BME280;19508;42.578;23.416;2023-07-22T03:40:13;93655.63;;;23.52;66.09
33151;BME280;19508;42.578;23.416;2023-07-22T03:42:53;93660.53;;;23.58;65.91
33151;BME280;19508;42.578;23.416;2023-07-22T03:45:20;93658.34;;;23.52;66.22
33151;BME280;19508;42.578;23.416;2023-07-22T03:47:49;93660.53;;;23.58;66.06
33151;BME280;19508;42.578;23.416;2023-07-22T03:50:15;93671.41;;;23.55;66.60
33151;BME280;19508;42.578;23.416;2023-07-22T03:52:40;93664.59;;;23.40;66.73
33151;BME280;19508;42.578;23.416;2023-07-22T03:55:06;93674.97;;;23.55;66.24
33151;BME280;19508;42.578;23.416;2023-07-22T03:57:31;93681.88;;;23.61;66.00
33151;BME280;19508;42.578;23.416;2023-07-22T03:59:57;93690.06;;;23.70;65.99
33151;BME280;19508;42.578;23.416;2023-07-22T04:02:23;93688.69;;;23.76;65.71
33151;BME280;19508;42.578;23.416;2023-07-22T04:04:55;93698.06;;;23.75;66.39
33151;BME280;19508;42.578;23.416;2023-07-22T04:07:21;93693.59;;;23.71;66.83
33151;BME280;19508;42.578;23.416;2023-07-22T04:09:47;93697.53;;;23.82;66.37
33151;BME280;19508;42.578;23.416;2023-07-22T04:12:13;93699.94;;;23.83;66.61
33151;BME280;19508;42.578;23.416;2023-07-22T04:14:38;93687.38;;;24.07;66.27
33151;BME280;19508;42.578;23.416;2023-07-22T04:17:04;93686.03;;;24.25;65.57
33151;BME280;19508;42.578;23.416;2023-07-22T04:19:30;93683.34;;;24.37;65.04
33151;BME280;19508;42.578;23.416;2023-07-22T04:21:56;93686.31;;;24.44;65.08
33151;BME280;19508;42.578;23.416;2023-07-22T04:24:21;93692.94;;;24.43;64.85
33151;BME280;19508;42.578;23.416;2023-07-22T04:26:47;93690.44;;;24.63;63.90
33151;BME280;19508;42.578;23.416;2023-07-22T04:29:12;93691.00;;;24.68;64.54
33151;BME280;19508;42.578;23.416;2023-07-22T04:31:38;93686.44;;;24.72;64.17
33151;BME280;19508;42.578;23.416;2023-07-22T04:34:04;93686.75;;;24.95;63.08
33151;BME280;19508;42.578;23.416;2023-07-22T04:36:31;93690.84;;;25.01;63.09
33151;BME280;19508;42.578;23.416;2023-07-22T04:38:56;93696.84;;;25.03;62.82
33151;BME280;19508;42.578;23.416;2023-07-22T04:41:21;93704.97;;;25.12;62.37
33151;BME280;19508;42.578;23.416;2023-07-22T04:43:47;93707.38;;;25.26;62.56
33151;BME280;19508;42.578;23.416;2023-07-22T04:46:13;93704.59;;;25.38;62.48
33151;BME280;19508;42.578;23.416;2023-07-22T04:48:38;93713.97;;;25.49;61.94
33151;BME280;19508;42.578;23.416;2023-07-22T04:51:03;93710.06;;;25.50;61.89
33151;BME280;19508;42.578;23.416;2023-07-22T04:53:29;93707.72;;;25.65;61.98
33151;BME280;19508;42.578;23.416;2023-07-22T04:55:54;93708.13;;;25.79;62.58
33151;BME280;19508;42.578;23.416;2023-07-22T04:58:20;93706.41;;;26.02;60.82
33151;BME280;19508;42.578;23.416;2023-07-22T05:00:46;93700.00;;;26.14;60.73
33151;BME280;19508;42.578;23.416;2023-07-22T05:03:11;93702.97;;;26.37;60.58
33151;BME280;19508;42.578;23.416;2023-07-22T05:05:37;93702.66;;;26.70;59.14
33151;BME280;19508;42.578;23.416;2023-07-22T05:08:02;93707.09;;;26.75;59.75
33151;BME280;19508;42.578;23.416;2023-07-22T05:10:29;93707.59;;;27.12;58.55
33151;BME280;19508;42.578;23.416;2023-07-22T05:12:54;93701.47;;;27.57;56.73
33151;BME280;19508;42.578;23.416;2023-07-22T05:15:20;93701.78;;;27.91;55.30
33151;BME280;19508;42.578;23.416;2023-07-22T05:17:45;93696.34;;;28.36;54.40
33151;BME280;19508;42.578;23.416;2023-07-22T05:20:12;93701.59;;;28.64;53.12
33151;BME280;19508;42.578;23.416;2023-07-22T05:22:38;93722.16;;;29.13;51.51
33151;BME280;19508;42.578;23.416;2023-07-22T05:25:05;93725.31;;;29.64;51.39
33151;BME280;19508;42.578;23.416;2023-07-22T05:27:31;93725.03;;;29.46;49.55
33151;BME280;19508;42.578;23.416;2023-07-22T05:29:57;93717.38;;;29.63;49.91
33151;BME280;19508;42.578;23.416;2023-07-22T05:32:22;93725.03;;;30.06;49.35
33151;BME280;19508;42.578;23.416;2023-07-22T05:34:47;93728.66;;;30.44;48.04
33151;BME280;19508;42.578;23.416;2023-07-22T05:37:13;93717.59;;;30.11;48.00
33151;BME280;19508;42.578;23.416;2023-07-22T05:39:38;93713.22;;;30.50;48.12
33151;BME280;19508;42.578;23.416;2023-07-22T05:42:04;93718.53;;;30.63;47.18
33151;BME280;19508;42.578;23.416;2023-07-22T05:44:30;93714.50;;;30.56;47.63
33151;BME280;19508;42.578;23.416;2023-07-22T05:46:55;93719.50;;;30.77;46.99
33151;BME280;19508;42.578;23.416;2023-07-22T05:49:21;93707.06;;;30.68;47.40
33151;BME280;19508;42.578;23.416;2023-07-22T05:51:46;93717.19;;;30.86;47.59
33151;BME280;19508;42.578;23.416;2023-07-22T05:54:11;93720.97;;;30.68;47.75
33151;BME280;19508;42.578;23.416;2023-07-22T05:56:37;93724.97;;;30.70;47.43
33151;BME280;19508;42.578;23.416;2023-07-22T05:59:02;93733.44;;;30.47;47.28
33151;BME280;19508;42.578;23.416;2023-07-22T06:01:28;93716.06;;;30.54;48.29
33151;BME280;19508;42.578;23.416;2023-07-22T06:03:53;93718.34;;;30.45;48.00
33151;BME280;19508;42.578;23.416;2023-07-22T06:06:19;93720.97;;;30.68;47.88
33151;BME280;19508;42.578;23.416;2023-07-22T06:08:44;93726.38;;;30.53;47.31
33151;BME280;19508;42.578;23.416;2023-07-22T06:11:10;93734.44;;;30.66;46.46
33151;BME280;19508;42.578;23.416;2023-07-22T06:13:35;93726.38;;;30.94;46.33
33151;BME280;19508;42.578;23.416;2023-07-22T06:16:00;93737.13;;;30.96;47.50
33151;BME280;19508;42.578;23.416;2023-07-22T06:18:26;93746.81;;;31.16;47.31
33151;BME280;19508;42.578;23.416;2023-07-22T06:20:51;93742.44;;;31.18;47.38
33151;BME280;19508;42.578;23.416;2023-07-22T06:23:17;93750.31;;;31.61;45.70
33151;BME280;19508;42.578;23.416;2023-07-22T06:25:42;93751.13;;;32.38;44.37
33151;BME280;19508;42.578;23.416;2023-07-22T06:28:08;93758.59;;;32.16;46.06
33151;BME280;19508;42.578;23.416;2023-07-22T06:30:33;93760.38;;;32.77;43.30
33151;BME280;19508;42.578;23.416;2023-07-22T06:32:59;93767.59;;;32.96;43.92
33151;BME280;19508;42.578;23.416;2023-07-22T06:35:24;93766.41;;;33.15;41.45
33151;BME280;19508;42.578;23.416;2023-07-22T06:37:49;93777.22;;;33.42;41.61
33151;BME280;19508;42.578;23.416;2023-07-22T06:40:15;93775.94;;;32.86;41.96
33151;BME280;19508;42.578;23.416;2023-07-22T06:42:40;93779.09;;;31.83;42.91
33151;BME280;19508;42.578;23.416;2023-07-22T06:45:06;93777.78;;;32.39;42.13
33151;BME280;19508;42.578;23.416;2023-07-22T06:47:32;93781.16;;;33.19;41.81
33151;BME280;19508;42.578;23.416;2023-07-22T06:49:57;93779.53;;;33.82;40.57
33151;BME280;19508;42.578;23.416;2023-07-22T06:52:23;93781.88;;;34.09;39.40
33151;BME280;19508;42.578;23.416;2023-07-22T06:54:49;93779.88;;;34.20;38.93
33151;BME280;19508;42.578;23.416;2023-07-22T06:57:14;93777.38;;;35.17;36.24
33151;BME280;19508;42.578;23.416;2023-07-22T06:59:40;93769.88;;;35.58;36.04
33151;BME280;19508;42.578;23.416;2023-07-22T07:02:05;93765.91;;;35.97;35.86
33151;BME280;19508;42.578;23.416;2023-07-22T07:04:31;93768.56;;;36.11;37.00
33151;BME280;19508;42.578;23.416;2023-07-22T07:06:56;93766.09;;;36.17;35.14
33151;BME280;19508;42.578;23.416;2023-07-22T07:09:22;93760.50;;;35.31;35.54
33151;BME280;19508;42.578;23.416;2023-07-22T07:11:47;93768.81;;;35.42;34.79
33151;BME280;19508;42.578;23.416;2023-07-22T07:14:12;93762.69;;;36.36;33.70
33151;BME280;19508;42.578;23.416;2023-07-22T07:16:38;93756.56;;;36.76;32.79
33151;BME280;19508;42.578;23.416;2023-07-22T07:19:03;93755.09;;;36.67;31.68
33151;BME280;19508;42.578;23.416;2023-07-22T07:21:29;93761.81;;;36.43;32.35
33151;BME280;19508;42.578;23.416;2023-07-22T07:23:55;93757.78;;;36.44;32.81
33151;BME280;19508;42.578;23.416;2023-07-22T07:26:21;93749.22;;;36.24;33.46
33151;BME280;19508;42.578;23.416;2023-07-22T07:28:48;93753.44;;;36.70;33.35
33151;BME280;19508;42.578;23.416;2023-07-22T07:31:13;93746.94;;;36.77;32.96
33151;BME280;19508;42.578;23.416;2023-07-22T07:33:38;93745.69;;;36.51;34.17
33151;BME280;19508;42.578;23.416;2023-07-22T07:36:04;93745.94;;;35.50;34.39
33151;BME280;19508;42.578;23.416;2023-07-22T07:38:30;93735.41;;;35.65;35.86
33151;BME280;19508;42.578;23.416;2023-07-22T07:40:58;93725.69;;;35.32;36.20
33151;BME280;19508;42.578;23.416;2023-07-22T07:43:24;93730.97;;;35.23;35.91
33151;BME280;19508;42.578;23.416;2023-07-22T07:45:50;93720.78;;;34.98;36.71
33151;BME280;19508;42.578;23.416;2023-07-22T07:48:16;93719.16;;;35.04;36.07
33151;BME280;19508;42.578;23.416;2023-07-22T07:50:42;93736.47;;;34.78;36.42
33151;BME280;19508;42.578;23.416;2023-07-22T07:53:08;93733.16;;;34.28;37.18
33151;BME280;19508;42.578;23.416;2023-07-22T07:55:33;93730.88;;;34.78;36.77
33151;BME280;19508;42.578;23.416;2023-07-22T07:57:58;93728.94;;;34.68;37.06
33151;BME280;19508;42.578;23.416;2023-07-22T08:00:24;93723.53;;;34.32;39.22
33151;BME280;19508;42.578;23.416;2023-07-22T08:02:49;93734.75;;;34.18;38.95
33151;BME280;19508;42.578;23.416;2023-07-22T08:05:15;93739.38;;;34.64;37.71
33151;BME280;19508;42.578;23.416;2023-07-22T08:07:41;93734.84;;;33.82;38.51
33151;BME280;19508;42.578;23.416;2023-07-22T08:10:07;93726.16;;;33.59;38.89
33151;BME280;19508;42.578;23.416;2023-07-22T08:12:33;93725.34;;;33.58;39.23
33151;BME280;19508;42.578;23.416;2023-07-22T08:14:59;93725.63;;;34.10;38.80
33151;BME280;19508;42.578;23.416;2023-07-22T08:17:25;93729.16;;;34.18;36.93
33151;BME280;19508;42.578;23.416;2023-07-22T08:19:51;93728.50;;;33.71;39.77
33151;BME280;19508;42.578;23.416;2023-07-22T08:22:17;93720.72;;;34.32;38.55
33151;BME280;19508;42.578;23.416;2023-07-22T08:24:43;93714.81;;;34.16;38.81
33151;BME280;19508;42.578;23.416;2023-07-22T08:27:09;93718.72;;;34.36;36.87
33151;BME280;19508;42.578;23.416;2023-07-22T08:29:34;93716.84;;;34.89;36.80
33151;BME280;19508;42.578;23.416;2023-07-22T08:32:02;93717.47;;;35.59;37.99
33151;BME280;19508;42.578;23.416;2023-07-22T08:34:27;93709.59;;;34.98;36.32
33151;BME280;19508;42.578;23.416;2023-07-22T08:36:53;93718.28;;;35.59;36.08
33151;BME280;19508;42.578;23.416;2023-07-22T08:39:18;93702.88;;;36.16;35.43
33151;BME280;19508;42.578;23.416;2023-07-22T08:41:48;93709.94;;;35.52;36.22
33151;BME280;19508;42.578;23.416;2023-07-22T08:44:18;93702.84;;;35.82;36.80
33151;BME280;19508;42.578;23.416;2023-07-22T08:46:45;93701.22;;;36.19;36.09
33151;BME280;19508;42.578;23.416;2023-07-22T08:49:11;93695.19;;;36.20;33.96
33151;BME280;19508;42.578;23.416;2023-07-22T08:51:37;93690.53;;;36.40;34.90
33151;BME280;19508;42.578;23.416;2023-07-22T08:54:02;93687.09;;;35.95;36.20
33151;BME280;19508;42.578;23.416;2023-07-22T08:56:28;93679.53;;;36.23;35.66
33151;BME280;19508;42.578;23.416;2023-07-22T08:58:55;93668.09;;;36.10;35.35
33151;BME280;19508;42.578;23.416;2023-07-22T09:01:21;93663.00;;;36.62;36.42
33151;BME280;19508;42.578;23.416;2023-07-22T09:03:48;93657.28;;;36.69;34.00
33151;BME280;19508;42.578;23.416;2023-07-22T09:06:17;93657.19;;;36.77;33.44
33151;BME280;19508;42.578;23.416;2023-07-22T09:08:42;93648.19;;;36.89;36.37
33151;BME280;19508;42.578;23.416;2023-07-22T09:11:08;93648.50;;;36.67;34.00
33151;BME280;19508;42.578;23.416;2023-07-22T09:13:35;93656.41;;;36.76;34.25
33151;BME280;19508;42.578;23.416;2023-07-22T09:16:01;93664.06;;;36.99;34.03
33151;BME280;19508;42.578;23.416;2023-07-22T09:18:28;93647.75;;;36.90;36.73
33151;BME280;19508;42.578;23.416;2023-07-22T09:20:53;93649.50;;;36.84;35.67
33151;BME280;19508;42.578;23.416;2023-07-22T09:23:31;93649.91;;;37.30;34.64
33151;BME280;19508;42.578;23.416;2023-07-22T09:26:11;93656.63;;;37.12;33.94
33151;BME280;19508;42.578;23.416;2023-07-22T09:31:24;93645.03;;;36.87;32.88
33151;BME280;19508;42.578;23.416;2023-07-22T09:33:50;93652.13;;;36.95;33.13
33151;BME280;19508;42.578;23.416;2023-07-22T09:36:16;93641.13;;;37.04;31.95
33151;BME280;19508;42.578;23.416;2023-07-22T09:38:41;93640.13;;;36.91;31.92
33151;BME280;19508;42.578;23.416;2023-07-22T09:41:07;93632.66;;;36.81;35.89
33151;BME280;19508;42.578;23.416;2023-07-22T09:43:38;93647.59;;;36.74;33.60
33151;BME280;19508;42.578;23.416;2023-07-22T09:46:10;93637.59;;;36.46;34.43
33151;BME280;19508;42.578;23.416;2023-07-22T09:48:43;93635.56;;;36.50;37.04
33151;BME280;19508;42.578;23.416;2023-07-22T09:51:16;93637.31;;;36.67;33.77
33151;BME280;19508;42.578;23.416;2023-07-22T09:53:59;93631.59;;;36.98;33.37
33151;BME280;19508;42.578;23.416;2023-07-22T09:56:25;93637.75;;;36.89;34.44
33151;BME280;19508;42.578;23.416;2023-07-22T09:58:52;93642.09;;;37.17;34.51
33151;BME280;19508;42.578;23.416;2023-07-22T10:01:23;93631.50;;;37.28;33.67
33151;BME280;19508;42.578;23.416;2023-07-22T10:03:54;93631.31;;;37.16;33.56
33151;BME280;19508;42.578;23.416;2023-07-22T10:06:28;93627.34;;;36.90;33.34
33151;BME280;19508;42.578;23.416;2023-07-22T10:08:56;93620.50;;;36.91;33.08
33151;BME280;19508;42.578;23.416;2023-07-22T10:11:23;93628.94;;;36.64;35.20
33151;BME280;19508;42.578;23.416;2023-07-22T10:13:52;93629.72;;;36.91;35.69
33151;BME280;19508;42.578;23.416;2023-07-22T10:16:18;93635.28;;;36.95;32.93
33151;BME280;19508;42.578;23.416;2023-07-22T10:18:44;93632.31;;;37.25;34.57
33151;BME280;19508;42.578;23.416;2023-07-22T10:21:12;93628.44;;;37.19;34.36
33151;BME280;19508;42.578;23.416;2023-07-22T10:23:38;93622.41;;;37.44;33.21
33151;BME280;19508;42.578;23.416;2023-07-22T10:26:05;93629.00;;;37.34;33.29
33151;BME280;19508;42.578;23.416;2023-07-22T10:28:31;93633.69;;;37.41;33.08
33151;BME280;19508;42.578;23.416;2023-07-22T10:30:58;93633.88;;;37.07;33.24
33151;BME280;19508;42.578;23.416;2023-07-22T10:33:24;93631.69;;;37.18;32.95
33151;BME280;19508;42.578;23.416;2023-07-22T10:36:03;93625.09;;;37.05;32.74
33151;BME280;19508;42.578;23.416;2023-07-22T10:38:30;93625.63;;;36.96;33.19
33151;BME280;19508;42.578;23.416;2023-07-22T10:40:55;93616.44;;;37.19;33.36
33151;BME280;19508;42.578;23.416;2023-07-22T10:43:31;93625.25;;;37.41;31.94
33151;BME280;19508;42.578;23.416;2023-07-22T10:46:14;93615.94;;;37.47;31.89
33151;BME280;19508;42.578;23.416;2023-07-22T10:48:42;93615.22;;;37.63;31.52
33151;BME280;19508;42.578;23.416;2023-07-22T10:51:10;93619.38;;;37.35;31.69
33151;BME280;19508;42.578;23.416;2023-07-22T10:53:55;93621.59;;;37.20;30.70
33151;BME280;19508;42.578;23.416;2023-07-22T10:56:21;93622.47;;;37.41;30.42
33151;BME280;19508;42.578;23.416;2023-07-22T11:12:15;93606.97;;;37.96;29.89
33151;BME280;19508;42.578;23.416;2023-07-22T11:14:48;93608.94;;;38.15;28.85
33151;BME280;19508;42.578;23.416;2023-07-22T11:17:14;93604.09;;;37.79;28.81
33151;BME280;19508;42.578;23.416;2023-07-22T11:19:40;93603.63;;;38.01;29.46
33151;BME280;19508;42.578;23.416;2023-07-22T11:22:06;93601.66;;;38.37;31.08
33151;BME280;19508;42.578;23.416;2023-07-22T11:24:35;93590.97;;;38.65;26.25
33151;BME280;19508;42.578;23.416;2023-07-22T11:27:08;93590.13;;;38.84;27.12
33151;BME280;19508;42.578;23.416;2023-07-22T11:29:34;93590.13;;;39.01;26.29
33151;BME280;19508;42.578;23.416;2023-07-22T11:32:00;93592.94;;;39.17;25.27
33151;BME280;19508;42.578;23.416;2023-07-22T11:34:25;93588.19;;;38.98;24.37
33151;BME280;19508;42.578;23.416;2023-07-22T11:36:52;93587.75;;;39.32;25.30
33151;BME280;19508;42.578;23.416;2023-07-22T11:39:20;93581.84;;;39.26;24.68
33151;BME280;19508;42.578;23.416;2023-07-22T11:41:46;93578.06;;;39.33;25.19
33151;BME280;19508;42.578;23.416;2023-07-22T11:44:15;93580.34;;;39.67;24.41
33151;BME280;19508;42.578;23.416;2023-07-22T11:47:03;93570.53;;;39.42;24.92
33151;BME280;19508;42.578;23.416;2023-07-22T11:49:36;93570.97;;;39.57;24.64
33151;BME280;19508;42.578;23.416;2023-07-22T11:52:07;93560.97;;;39.69;23.91
33151;BME280;19508;42.578;23.416;2023-07-22T11:54:40;93562.63;;;39.37;25.10
33151;BME280;19508;42.578;23.416;2023-07-22T11:57:20;93565.97;;;39.90;23.26
33151;BME280;19508;42.578;23.416;2023-07-22T11:59:50;93561.38;;;39.96;23.49
33151;BME280;19508;42.578;23.416;2023-07-22T12:02:27;93553.56;;;40.17;25.04
33151;BME280;19508;42.578;23.416;2023-07-22T12:04:58;93556.72;;;39.77;24.16
33151;BME280;19508;42.578;23.416;2023-07-22T12:07:29;93566.69;;;39.94;23.95
33151;BME280;19508;42.578;23.416;2023-07-22T12:09:57;93562.88;;;39.59;22.57
33151;BME280;19508;42.578;23.416;2023-07-22T12:12:37;93556.13;;;39.40;22.99
33151;BME280;19508;42.578;23.416;2023-07-22T12:15:13;93546.41;;;39.58;22.91
33151;BME280;19508;42.578;23.416;2023-07-22T12:20:13;93543.16;;;39.72;24.21
33151;BME280;19508;42.578;23.416;2023-07-22T12:22:39;93548.31;;;39.61;22.62
33151;BME280;19508;42.578;23.416;2023-07-22T12:25:05;93544.97;;;39.66;22.75
33151;BME280;19508;42.578;23.416;2023-07-22T12:27:31;93548.59;;;39.66;21.93
33151;BME280;19508;42.578;23.416;2023-07-22T12:29:56;93537.75;;;40.07;22.35
33151;BME280;19508;42.578;23.416;2023-07-22T12:32:21;93537.53;;;40.14;21.75
33151;BME280;19508;42.578;23.416;2023-07-22T12:34:47;93533.97;;;39.97;22.65
33151;BME280;19508;42.578;23.416;2023-07-22T12:37:12;93525.47;;;39.71;23.06
33151;BME280;19508;42.578;23.416;2023-07-22T12:39:38;93524.09;;;39.34;23.08
33151;BME280;19508;42.578;23.416;2023-07-22T12:42:03;93525.72;;;39.48;24.21
33151;BME280;19508;42.578;23.416;2023-07-22T12:44:29;93555.69;;;39.71;23.46
33151;BME280;19508;42.578;23.416;2023-07-22T12:46:55;93532.22;;;40.41;22.99
33151;BME280;19508;42.578;23.416;2023-07-22T12:49:20;93535.38;;;41.41;20.76
33151;BME280;19508;42.578;23.416;2023-07-22T12:51:46;93540.44;;;42.12;21.98
33151;BME280;19508;42.578;23.416;2023-07-22T12:54:11;93540.84;;;42.02;21.22
33151;BME280;19508;42.578;23.416;2023-07-22T12:56:36;93524.81;;;41.20;21.81
33151;BME280;19508;42.578;23.416;2023-07-22T12:59:02;93515.66;;;42.16;19.79
33151;BME280;19508;42.578;23.416;2023-07-22T13:01:27;93520.75;;;43.29;18.73
33151;BME280;19508;42.578;23.416;2023-07-22T13:03:53;93514.00;;;44.42;18.49
33151;BME280;19508;42.578;23.416;2023-07-22T13:06:18;93510.88;;;44.40;18.30